Airport View

Enter AWOS ICAO identifier for current METAR.

ex. KFNL

KAKR 262332Z AUTO 23011KT 2 1/2SM -SN BR OVC010 02/M01 A2983 RMK AO2 CIG 005V013 P0000 T00171006 $

26 Jan 2020 23:56

Frequency: 126.825

Phone: 330-724-4237

Other Area AWOS: KCAK - KPOV - KBJJ - KCLE

TAF KCAK 261720Z 2618/2718 25011KT 6SM BR OVC007 TEMPO 2620/2624 5SM -SHSN OVC008 FM270000 26012KT 4SM BR OVC008 TEMPO 2700/2704 2SM -SN BR OVC005 FM271200 28007KT 2SM BR OVC007 FM271500 29008KT 5SM BR OVC009